createdAt,value
2023-02-27T00:00:28.777Z,-1.60
2023-02-27T00:02:56.390Z,-1.62
2023-02-27T00:05:23.961Z,-1.64
2023-02-27T00:07:52.035Z,-1.67
2023-02-27T00:10:21.179Z,-1.70
2023-02-27T00:12:48.787Z,-1.71
2023-02-27T00:15:19.553Z,-1.71
2023-02-27T00:17:47.083Z,-1.70
2023-02-27T00:20:18.116Z,-1.71
2023-02-27T00:22:46.715Z,-1.70
2023-02-27T00:25:15.092Z,-1.68
2023-02-27T00:27:44.046Z,-1.69
2023-02-27T00:30:13.902Z,-1.68
2023-02-27T00:32:41.608Z,-1.68
2023-02-27T00:35:11.668Z,-1.66
2023-02-27T00:37:39.734Z,-1.64
2023-02-27T00:40:09.182Z,-1.65
2023-02-27T00:42:36.757Z,-1.64
2023-02-27T00:45:07.058Z,-1.64
2023-02-27T00:47:35.376Z,-1.64
2023-02-27T00:50:03.120Z,-1.62
2023-02-27T00:52:30.760Z,-1.62
2023-02-27T00:54:58.278Z,-1.61
2023-02-27T00:57:25.972Z,-1.61
2023-02-27T00:59:53.502Z,-1.61
2023-02-27T01:02:22.389Z,-1.62
2023-02-27T01:04:50.355Z,-1.64
2023-02-27T01:07:17.874Z,-1.70
2023-02-27T01:09:45.525Z,-1.72
2023-02-27T01:12:13.018Z,-1.71
2023-02-27T01:14:40.740Z,-1.72
2023-02-27T01:17:08.268Z,-1.75
2023-02-27T01:19:37.169Z,-1.76
2023-02-27T01:22:04.753Z,-1.78
2023-02-27T01:24:32.412Z,-1.79
2023-02-27T01:26:59.954Z,-1.79
2023-02-27T01:29:27.486Z,-1.79
2023-02-27T01:31:55.188Z,-1.81
2023-02-27T01:34:22.739Z,-1.84
2023-02-27T01:36:51.548Z,-1.84
2023-02-27T01:39:19.023Z,-1.84
2023-02-27T01:41:46.533Z,-1.82
2023-02-27T01:44:15.389Z,-1.81
2023-02-27T01:46:43.410Z,-1.82
2023-02-27T01:49:16.035Z,-1.82
2023-02-27T01:51:48.656Z,-1.84
2023-02-27T01:54:20.854Z,-1.86
2023-02-27T01:56:49.423Z,-1.88
2023-02-27T01:59:18.175Z,-1.91
2023-02-27T02:01:46.878Z,-1.93
2023-02-27T02:04:23.385Z,-1.95
2023-02-27T02:06:56.417Z,-1.96
2023-02-27T02:09:27.067Z,-1.95
2023-02-27T02:11:56.114Z,-1.94
2023-02-27T02:14:24.072Z,-1.94
2023-02-27T02:17:14.618Z,-1.96
2023-02-27T02:20:12.099Z,-1.99
2023-02-27T02:23:18.028Z,-2.02
2023-02-27T02:26:19.814Z,-2.04
2023-02-27T02:29:21.664Z,-2.03
2023-02-27T02:32:12.470Z,-2.06
2023-02-27T02:35:11.460Z,-2.09
2023-02-27T02:38:03.884Z,-2.10
2023-02-27T02:40:40.506Z,-2.10
2023-02-27T02:43:15.314Z,-2.13
2023-02-27T02:45:50.679Z,-2.15
2023-02-27T02:48:22.917Z,-2.16
2023-02-27T02:50:56.781Z,-2.19
2023-02-27T02:53:36.947Z,-2.22
2023-02-27T02:56:12.405Z,-2.23
2023-02-27T02:58:48.559Z,-2.24
2023-02-27T03:01:18.625Z,-2.26
2023-02-27T03:03:50.862Z,-2.28
2023-02-27T03:06:24.057Z,-2.31
2023-02-27T03:08:56.575Z,-2.34
2023-02-27T03:11:29.815Z,-2.35
2023-02-27T03:14:04.153Z,-2.34
2023-02-27T03:16:37.352Z,-2.39
2023-02-27T03:19:12.239Z,-2.39
2023-02-27T03:21:44.694Z,-2.39
2023-02-27T03:24:16.000Z,-2.38
2023-02-27T03:26:48.626Z,-2.38
2023-02-27T03:29:21.093Z,-2.41
2023-02-27T03:31:54.334Z,-2.42
2023-02-27T03:34:27.187Z,-2.44
2023-02-27T03:36:58.673Z,-2.41
2023-02-27T03:39:31.913Z,-2.40
2023-02-27T03:42:11.177Z,-2.39
2023-02-27T03:44:52.448Z,-2.41
2023-02-27T03:47:20.451Z,-2.41
2023-02-27T03:49:51.023Z,-2.40
2023-02-27T03:52:19.366Z,-2.39
2023-02-27T03:54:54.084Z,-2.37
2023-02-27T03:57:23.644Z,-2.36
2023-02-27T03:59:51.370Z,-2.35
2023-02-27T04:02:19.100Z,-2.36
2023-02-27T04:04:46.631Z,-2.35
2023-02-27T04:07:25.859Z,-2.34
2023-02-27T04:10:16.185Z,-2.32
2023-02-27T04:13:28.671Z,-2.26
2023-02-27T04:16:22.783Z,-2.25
2023-02-27T04:19:04.629Z,-2.27
2023-02-27T04:21:39.173Z,-2.27
2023-02-27T04:24:17.777Z,-2.28
2023-02-27T04:26:50.462Z,-2.28
2023-02-27T04:29:29.860Z,-2.27
2023-02-27T04:32:03.126Z,-2.26
2023-02-27T04:34:36.493Z,-2.25
2023-02-27T04:37:11.196Z,-2.26
2023-02-27T04:39:44.546Z,-2.25
2023-02-27T04:42:17.314Z,-2.26
2023-02-27T04:44:48.059Z,-2.23
2023-02-27T04:47:19.052Z,-2.26
2023-02-27T04:49:50.671Z,-2.30
2023-02-27T04:52:24.312Z,-2.31
2023-02-27T04:54:57.940Z,-2.29
2023-02-27T04:57:32.658Z,-2.29
2023-02-27T05:00:07.553Z,-2.28
2023-02-27T05:02:39.856Z,-2.32
2023-02-27T05:05:10.784Z,-2.33
2023-02-27T05:07:42.610Z,-2.36
2023-02-27T05:10:18.233Z,-2.37
2023-02-27T05:12:50.828Z,-2.39
2023-02-27T05:15:25.378Z,-2.41
2023-02-27T05:18:01.574Z,-2.43
2023-02-27T05:20:34.318Z,-2.45
2023-02-27T05:23:09.285Z,-2.46
2023-02-27T05:25:42.286Z,-2.48
2023-02-27T05:28:16.363Z,-2.50
2023-02-27T05:30:54.424Z,-2.52
2023-02-27T05:33:30.537Z,-2.51
2023-02-27T05:36:09.942Z,-2.51
2023-02-27T05:38:41.706Z,-2.51
2023-02-27T05:41:12.953Z,-2.53
2023-02-27T05:43:43.938Z,-2.54
2023-02-27T05:46:16.933Z,-2.56
2023-02-27T05:48:50.689Z,-2.59
2023-02-27T05:51:25.303Z,-2.59
2023-02-27T05:53:58.813Z,-2.60
2023-02-27T05:56:29.598Z,-2.63
2023-02-27T05:59:01.824Z,-2.63
2023-02-27T06:01:30.841Z,-2.63
2023-02-27T06:03:58.712Z,-2.61
2023-02-27T06:06:26.680Z,-2.62
2023-02-27T06:08:54.365Z,-2.62
2023-02-27T06:11:21.922Z,-2.62
2023-02-27T06:13:49.479Z,-2.64
2023-02-27T06:16:17.750Z,-2.67
2023-02-27T06:18:46.719Z,-2.71
2023-02-27T06:21:14.622Z,-2.70
2023-02-27T06:23:42.108Z,-2.71
2023-02-27T06:26:13.644Z,-2.71
2023-02-27T06:28:42.253Z,-2.66
2023-02-27T06:31:10.783Z,-2.64
2023-02-27T06:33:38.392Z,-2.62
2023-02-27T06:36:07.825Z,-2.61
2023-02-27T06:38:35.325Z,-2.58
2023-02-27T06:41:04.324Z,-2.55
2023-02-27T06:43:34.681Z,-2.54
2023-02-27T06:46:02.517Z,-2.47
2023-02-27T06:48:30.190Z,-2.40
2023-02-27T06:50:57.830Z,-2.34
2023-02-27T06:53:26.792Z,-2.22
2023-02-27T06:55:54.260Z,-2.11
2023-02-27T06:58:21.809Z,-2.01
2023-02-27T07:00:49.385Z,-1.92
2023-02-27T07:03:17.017Z,-1.83
2023-02-27T07:05:44.738Z,-1.75
2023-02-27T07:08:12.489Z,-1.66
2023-02-27T07:10:43.949Z,-1.57
2023-02-27T07:13:11.434Z,-1.44
2023-02-27T07:15:39.009Z,-1.32
2023-02-27T07:18:06.979Z,-1.22
2023-02-27T07:20:34.554Z,-1.07
2023-02-27T07:23:02.054Z,-0.87
2023-02-27T07:25:30.020Z,-0.71
2023-02-27T07:27:58.998Z,-0.52
2023-02-27T07:30:26.489Z,-0.31
2023-02-27T07:32:54.065Z,-0.10
2023-02-27T07:35:21.574Z,0.35
2023-02-27T07:37:49.409Z,0.88
2023-02-27T07:40:17.040Z,2.22
2023-02-27T07:42:44.518Z,3.35
2023-02-27T07:45:13.587Z,3.70
2023-02-27T07:47:41.123Z,4.89
2023-02-27T07:50:09.936Z,5.46
2023-02-27T07:52:37.467Z,5.70
2023-02-27T07:55:05.197Z,6.74
2023-02-27T07:57:32.724Z,7.05
2023-02-27T08:00:00.283Z,7.08
2023-02-27T08:02:29.192Z,7.90
2023-02-27T08:04:56.678Z,7.95
2023-02-27T08:07:24.205Z,7.66
2023-02-27T08:09:51.714Z,8.19
2023-02-27T08:12:19.799Z,8.24
2023-02-27T08:14:47.330Z,8.08
2023-02-27T08:17:15.073Z,8.67
2023-02-27T08:19:43.900Z,9.70
2023-02-27T08:22:12.342Z,10.70
2023-02-27T08:24:40.466Z,11.59
2023-02-27T08:27:08.496Z,12.21
2023-02-27T08:29:36.326Z,12.62
2023-02-27T08:32:04.750Z,12.99
2023-02-27T08:34:32.303Z,13.38
2023-02-27T08:37:01.139Z,13.57
2023-02-27T08:39:28.657Z,13.66
2023-02-27T08:41:56.206Z,13.67
2023-02-27T08:44:23.709Z,13.69
2023-02-27T08:46:51.258Z,13.67
2023-02-27T08:49:21.457Z,13.48
2023-02-27T08:51:49.303Z,13.29
2023-02-27T08:54:19.562Z,13.07
2023-02-27T08:56:47.876Z,12.82
2023-02-27T08:59:15.413Z,12.75
2023-02-27T09:01:43.574Z,12.66
2023-02-27T09:04:11.691Z,12.33
2023-02-27T09:06:39.615Z,12.15
2023-02-27T09:09:07.583Z,12.02
2023-02-27T09:11:38.762Z,11.90
2023-02-27T09:14:07.259Z,11.82
2023-02-27T09:16:34.887Z,11.53
2023-02-27T09:19:02.408Z,11.13
2023-02-27T09:21:30.042Z,10.91
2023-02-27T09:24:02.629Z,10.77
2023-02-27T09:26:45.170Z,10.67
2023-02-27T09:29:13.323Z,10.81
2023-02-27T09:31:40.916Z,10.81
2023-02-27T09:34:08.809Z,10.93
2023-02-27T09:36:36.330Z,11.03
2023-02-27T09:39:04.090Z,11.02
2023-02-27T09:41:48.904Z,10.89
2023-02-27T09:44:46.179Z,10.83
2023-02-27T09:47:19.782Z,10.71
2023-02-27T09:49:55.126Z,10.64
2023-02-27T09:52:22.871Z,10.55
2023-02-27T09:54:50.722Z,10.62
2023-02-27T09:57:25.729Z,10.67
2023-02-27T09:59:57.621Z,10.69
2023-02-27T10:02:40.547Z,10.61
2023-02-27T10:05:17.909Z,10.69
2023-02-27T10:07:53.001Z,10.91
2023-02-27T10:10:28.977Z,10.90
2023-02-27T10:13:12.545Z,10.79
2023-02-27T10:15:44.787Z,10.81
2023-02-27T10:18:26.959Z,10.78
2023-02-27T10:20:58.437Z,10.59
2023-02-27T10:23:35.157Z,10.30
2023-02-27T10:26:04.745Z,10.07
2023-02-27T10:28:34.804Z,9.85
2023-02-27T10:31:03.463Z,9.69
2023-02-27T10:33:36.522Z,9.64
2023-02-27T10:36:12.428Z,9.58
2023-02-27T10:38:46.459Z,9.44
2023-02-27T10:41:16.339Z,9.17
2023-02-27T10:43:45.481Z,8.97
2023-02-27T10:46:15.700Z,8.63
2023-02-27T10:48:43.253Z,8.26
2023-02-27T10:51:23.790Z,7.86
2023-02-27T10:53:52.675Z,7.52
2023-02-27T10:56:26.893Z,7.40
2023-02-27T10:59:06.437Z,7.27
2023-02-27T11:01:45.838Z,7.19
2023-02-27T11:04:14.778Z,7.01
2023-02-27T11:06:43.136Z,7.15
2023-02-27T11:09:21.840Z,7.28
2023-02-27T11:11:49.876Z,7.14
2023-02-27T11:14:28.110Z,7.26
2023-02-27T11:16:57.258Z,7.61
2023-02-27T11:19:30.401Z,8.08
2023-02-27T11:22:03.270Z,8.47
2023-02-27T11:24:31.225Z,8.61
2023-02-27T11:27:00.567Z,8.45
2023-02-27T11:29:29.494Z,8.18
2023-02-27T11:31:59.290Z,7.83
2023-02-27T11:34:30.536Z,7.56
2023-02-27T11:37:01.992Z,7.36
2023-02-27T11:39:37.974Z,7.11
2023-02-27T11:42:17.467Z,6.84
2023-02-27T11:44:55.766Z,6.73
2023-02-27T11:47:29.418Z,6.88
2023-02-27T11:50:14.875Z,7.26
2023-02-27T11:52:49.191Z,7.49
2023-02-27T11:55:20.343Z,7.38
2023-02-27T11:57:51.353Z,7.18
2023-02-27T12:00:24.514Z,6.79
2023-02-27T12:02:59.758Z,6.44
2023-02-27T12:05:32.163Z,6.19
2023-02-27T12:08:05.555Z,5.98
2023-02-27T12:10:39.676Z,5.77
2023-02-27T12:13:15.865Z,5.49
2023-02-27T12:15:50.067Z,5.28
2023-02-27T12:18:22.233Z,5.05
2023-02-27T12:20:56.028Z,4.98
2023-02-27T12:23:30.200Z,5.02
2023-02-27T12:26:03.645Z,4.99
2023-02-27T12:28:44.430Z,5.01
2023-02-27T12:31:30.557Z,4.99
2023-02-27T12:34:04.856Z,4.97
2023-02-27T12:36:32.514Z,4.93
2023-02-27T12:39:00.203Z,4.90
2023-02-27T12:41:38.711Z,4.94
2023-02-27T12:44:34.676Z,5.06
2023-02-27T12:47:19.037Z,5.05
2023-02-27T12:49:52.959Z,4.95
2023-02-27T12:52:31.659Z,4.90
2023-02-27T12:55:08.495Z,4.96
2023-02-27T12:57:53.610Z,4.97
2023-02-27T13:00:26.165Z,4.82
2023-02-27T13:03:01.279Z,4.67
2023-02-27T13:05:44.252Z,4.53
2023-02-27T13:08:38.225Z,4.41
2023-02-27T13:11:17.330Z,4.22
2023-02-27T13:13:49.818Z,4.13
2023-02-27T13:16:22.708Z,4.12
2023-02-27T13:18:57.068Z,4.12
2023-02-27T13:21:29.881Z,4.09
2023-02-27T13:24:24.186Z,4.03
2023-02-27T13:26:58.429Z,4.03
2023-02-27T13:29:34.882Z,4.02
2023-02-27T13:32:14.224Z,3.91
2023-02-27T13:34:47.750Z,3.84
2023-02-27T13:37:15.399Z,3.79
2023-02-27T13:39:56.098Z,3.78
2023-02-27T13:42:57.438Z,3.78
2023-02-27T13:45:54.730Z,3.76
2023-02-27T13:48:41.173Z,3.73
2023-02-27T13:51:44.861Z,3.56
2023-02-27T13:54:22.456Z,3.39
2023-02-27T13:56:52.071Z,3.29
2023-02-27T13:59:23.681Z,3.23
2023-02-27T14:01:57.296Z,3.19
2023-02-27T14:04:27.229Z,3.17
2023-02-27T14:07:01.223Z,3.18
2023-02-27T14:09:35.335Z,3.16
2023-02-27T14:12:06.207Z,3.08
2023-02-27T14:14:45.797Z,3.01
2023-02-27T14:17:15.654Z,2.97
2023-02-27T14:19:50.240Z,2.95
2023-02-27T14:22:41.935Z,2.92
2023-02-27T14:25:19.321Z,2.86
2023-02-27T14:27:56.530Z,2.79
2023-02-27T14:30:32.032Z,2.78
2023-02-27T14:33:03.754Z,2.78
2023-02-27T14:35:31.544Z,2.74
2023-02-27T14:38:04.784Z,2.76
2023-02-27T14:40:38.242Z,2.78
2023-02-27T14:43:15.955Z,2.80
2023-02-27T14:45:43.559Z,2.85
2023-02-27T14:48:11.700Z,2.95
2023-02-27T14:50:41.694Z,2.99
2023-02-27T14:53:24.349Z,2.97
2023-02-27T14:55:55.887Z,2.92
2023-02-27T14:58:24.641Z,2.82
2023-02-27T15:01:03.198Z,2.70
2023-02-27T15:03:44.016Z,2.61
2023-02-27T15:06:18.406Z,2.53
2023-02-27T15:08:51.061Z,2.43
2023-02-27T15:11:21.411Z,2.36
2023-02-27T15:13:51.817Z,2.35
2023-02-27T15:16:38.599Z,2.39
2023-02-27T15:19:15.254Z,2.43
2023-02-27T15:21:45.028Z,2.38
2023-02-27T15:24:24.860Z,2.33
2023-02-27T15:26:56.205Z,2.29
2023-02-27T15:29:26.325Z,2.26
2023-02-27T15:31:55.055Z,2.25
2023-02-27T15:34:22.772Z,2.24
2023-02-27T15:36:54.369Z,2.22
2023-02-27T15:39:25.655Z,2.16
2023-02-27T15:41:55.335Z,2.09
2023-02-27T15:44:27.686Z,2.01
2023-02-27T15:46:55.611Z,1.99
2023-02-27T15:49:25.524Z,1.98
2023-02-27T15:52:01.291Z,1.99
2023-02-27T15:54:34.719Z,2.01
2023-02-27T15:57:04.784Z,2.00
2023-02-27T15:59:36.785Z,1.99
2023-02-27T16:02:06.062Z,1.97
2023-02-27T16:04:35.687Z,1.95
2023-02-27T16:07:06.366Z,1.95
2023-02-27T16:09:38.594Z,1.93
2023-02-27T16:12:30.578Z,1.88
2023-02-27T16:15:31.991Z,1.80
2023-02-27T16:18:02.902Z,1.71
2023-02-27T16:20:41.035Z,1.60
2023-02-27T16:23:17.540Z,1.52
2023-02-27T16:26:03.287Z,1.46
2023-02-27T16:28:33.212Z,1.45
2023-02-27T16:31:01.356Z,1.46
2023-02-27T16:33:36.533Z,1.43
2023-02-27T16:36:17.713Z,1.42
2023-02-27T16:38:45.370Z,1.44
2023-02-27T16:41:16.428Z,1.42
2023-02-27T16:43:45.067Z,1.37
2023-02-27T16:46:15.684Z,1.29
2023-02-27T16:48:43.532Z,1.26
2023-02-27T16:51:17.675Z,1.23
2023-02-27T16:53:47.476Z,1.21
2023-02-27T16:56:21.469Z,1.16
2023-02-27T16:58:54.372Z,1.16
2023-02-27T17:01:21.906Z,1.17
2023-02-27T17:03:49.467Z,1.18
2023-02-27T17:06:17.322Z,1.16
2023-02-27T17:08:45.332Z,1.17
2023-02-27T17:11:12.913Z,1.18
2023-02-27T17:13:41.802Z,1.18
2023-02-27T17:16:09.412Z,1.17
2023-02-27T17:18:37.963Z,1.13
2023-02-27T17:21:05.878Z,1.08
2023-02-27T17:23:33.366Z,1.01
2023-02-27T17:26:00.871Z,0.97
2023-02-27T17:28:28.454Z,0.91
2023-02-27T17:30:57.339Z,0.86
2023-02-27T17:33:24.844Z,0.85
2023-02-27T17:35:53.023Z,0.84
2023-02-27T17:38:21.288Z,0.83
2023-02-27T17:40:48.806Z,0.81
2023-02-27T17:43:16.311Z,0.85
2023-02-27T17:45:43.892Z,0.85
2023-02-27T17:48:13.400Z,0.84
2023-02-27T17:50:40.951Z,0.82
2023-02-27T17:53:09.710Z,0.77
2023-02-27T17:55:40.479Z,0.72
2023-02-27T17:58:09.428Z,0.68
2023-02-27T18:00:36.989Z,0.66
2023-02-27T18:03:04.940Z,0.66
2023-02-27T18:05:33.784Z,0.67
2023-02-27T18:08:01.290Z,0.64
2023-02-27T18:10:28.845Z,0.64
2023-02-27T18:12:56.394Z,0.61
2023-02-27T18:15:23.889Z,0.59
2023-02-27T18:17:51.493Z,0.61
2023-02-27T18:20:19.446Z,0.64
2023-02-27T18:22:48.280Z,0.63
2023-02-27T18:25:16.856Z,0.68
2023-02-27T18:27:44.434Z,0.71
2023-02-27T18:30:13.124Z,0.69
2023-02-27T18:32:42.495Z,0.68
2023-02-27T18:35:11.102Z,0.67
2023-02-27T18:37:38.883Z,0.68
2023-02-27T18:40:09.460Z,0.63
2023-02-27T18:42:36.952Z,0.61
2023-02-27T18:45:05.292Z,0.60
2023-02-27T18:47:32.891Z,0.60
2023-02-27T18:50:00.835Z,0.58
2023-02-27T18:52:30.918Z,0.57
2023-02-27T18:54:58.777Z,0.57
2023-02-27T18:57:27.686Z,0.55
2023-02-27T18:59:55.481Z,0.54
2023-02-27T19:02:23.119Z,0.52
2023-02-27T19:04:50.948Z,0.52
2023-02-27T19:07:19.688Z,0.50
2023-02-27T19:09:47.210Z,0.50
2023-02-27T19:12:14.712Z,0.49
2023-02-27T19:14:43.583Z,0.47
2023-02-27T19:17:11.144Z,0.47
2023-02-27T19:19:38.778Z,0.45
2023-02-27T19:22:06.304Z,0.41
2023-02-27T19:24:34.055Z,0.39
2023-02-27T19:27:01.663Z,0.35
2023-02-27T19:29:29.400Z,0.34
2023-02-27T19:31:58.566Z,0.32
2023-02-27T19:34:26.190Z,0.31
2023-02-27T19:36:53.978Z,0.30
2023-02-27T19:39:22.996Z,0.29
2023-02-27T19:41:50.758Z,0.29
2023-02-27T19:44:18.454Z,0.28
2023-02-27T19:46:51.283Z,0.27
2023-02-27T19:49:20.829Z,0.24
2023-02-27T19:51:48.620Z,0.23
2023-02-27T19:54:17.471Z,0.23
2023-02-27T19:56:45.088Z,0.20
2023-02-27T19:59:13.565Z,0.17
2023-02-27T20:01:41.475Z,0.14
2023-02-27T20:04:11.072Z,0.13
2023-02-27T20:06:42.793Z,0.09
2023-02-27T20:09:11.484Z,0.09
2023-02-27T20:11:39.211Z,0.06
2023-02-27T20:14:07.324Z,0.04
2023-02-27T20:16:36.844Z,0.02
2023-02-27T20:19:05.064Z,-0.01
2023-02-27T20:21:34.139Z,-0.02
2023-02-27T20:24:03.379Z,-0.02
2023-02-27T20:26:34.406Z,-0.04
2023-02-27T20:29:04.574Z,-0.05
2023-02-27T20:31:35.243Z,-0.07
2023-02-27T20:34:06.175Z,-0.07
2023-02-27T20:36:34.815Z,-0.06
2023-02-27T20:39:05.372Z,-0.06
2023-02-27T20:41:34.754Z,-0.07
2023-02-27T20:44:02.572Z,-0.07
2023-02-27T20:46:31.781Z,-0.06
2023-02-27T20:49:01.236Z,-0.06
2023-02-27T20:51:30.944Z,-0.11
2023-02-27T20:54:00.543Z,-0.14
2023-02-27T20:56:32.069Z,-0.16
2023-02-27T20:59:00.938Z,-0.19
2023-02-27T21:01:29.065Z,-0.23
2023-02-27T21:03:58.966Z,-0.22
2023-02-27T21:06:27.031Z,-0.23
2023-02-27T21:08:56.522Z,-0.25
2023-02-27T21:11:27.291Z,-0.27
2023-02-27T21:13:57.454Z,-0.30
2023-02-27T21:16:25.784Z,-0.31
2023-02-27T21:18:56.384Z,-0.31
2023-02-27T21:21:26.257Z,-0.31
2023-02-27T21:23:54.227Z,-0.34
2023-02-27T21:26:23.853Z,-0.37
2023-02-27T21:28:52.276Z,-0.39
2023-02-27T21:31:23.049Z,-0.39
2023-02-27T21:33:52.222Z,-0.42
2023-02-27T21:36:25.847Z,-0.40
2023-02-27T21:38:56.418Z,-0.42
2023-02-27T21:41:24.179Z,-0.44
2023-02-27T21:43:51.700Z,-0.43
2023-02-27T21:46:20.823Z,-0.44
2023-02-27T21:48:49.850Z,-0.46
2023-02-27T21:51:29.652Z,-0.45
2023-02-27T21:54:05.292Z,-0.47
2023-02-27T21:56:32.885Z,-0.47
2023-02-27T21:59:02.258Z,-0.47
2023-02-27T22:01:31.175Z,-0.48
2023-02-27T22:04:01.804Z,-0.51
2023-02-27T22:06:32.481Z,-0.51
2023-02-27T22:09:04.412Z,-0.53
2023-02-27T22:11:32.679Z,-0.53
2023-02-27T22:14:00.256Z,-0.58
2023-02-27T22:16:28.444Z,-0.60
2023-02-27T22:18:56.062Z,-0.62
2023-02-27T22:21:27.253Z,-0.62
2023-02-27T22:23:58.679Z,-0.64
2023-02-27T22:26:29.131Z,-0.62
2023-02-27T22:28:57.488Z,-0.62
2023-02-27T22:31:27.619Z,-0.63
2023-02-27T22:33:59.358Z,-0.63
2023-02-27T22:36:30.523Z,-0.63
2023-02-27T22:38:58.738Z,-0.65
2023-02-27T22:41:28.667Z,-0.69
2023-02-27T22:43:57.044Z,-0.72
2023-02-27T22:46:28.247Z,-0.71
2023-02-27T22:48:57.082Z,-0.71
2023-02-27T22:51:27.643Z,-0.70
2023-02-27T22:53:58.235Z,-0.72
2023-02-27T22:56:26.577Z,-0.73
2023-02-27T22:58:54.585Z,-0.74
2023-02-27T23:01:24.262Z,-0.76
2023-02-27T23:03:53.296Z,-0.76
2023-02-27T23:06:22.959Z,-0.77
2023-02-27T23:08:50.537Z,-0.78
2023-02-27T23:11:21.369Z,-0.82
2023-02-27T23:13:49.464Z,-0.86
2023-02-27T23:16:17.610Z,-0.90
2023-02-27T23:18:47.453Z,-0.93
2023-02-27T23:21:16.273Z,-0.93
2023-02-27T23:23:43.980Z,-0.92
2023-02-27T23:26:12.510Z,-0.95
2023-02-27T23:28:41.646Z,-0.94
2023-02-27T23:31:10.290Z,-0.93
2023-02-27T23:33:38.236Z,-0.94
2023-02-27T23:36:06.340Z,-0.94
2023-02-27T23:38:34.085Z,-0.92
2023-02-27T23:41:06.342Z,-0.93
2023-02-27T23:43:33.991Z,-0.92
2023-02-27T23:46:08.231Z,-0.94
2023-02-27T23:48:36.390Z,-0.94
2023-02-27T23:51:06.519Z,-0.95
2023-02-27T23:53:35.450Z,-1.00
2023-02-27T23:56:13.281Z,-1.01
2023-02-27T23:58:40.888Z,-1.00
